Nashville, Tennessee
Current Conditions -  °F | °C
As of 5:53 AM on Wednesday 28 Jan 2015 (Local Time) from KBNA Reporting Station
Overcast Overcast  
Wind Chill: 25°   Ceiling: 2000
Heat Index: 33°   Visibility: 10mi
Dew Point: 25°   Wind: 9mph
Humidity: 72%   Direction: 80°E
Pressure: 30.31"   Gusts: NA
Location:  36.11°N, 86.68°W
Report Text: KBNA 281153Z 08008KT 10SM OVC020 01/M04 A3031 RMK AO2 SLP266 T00061039 10017 20000 53014
Loading
Personal Weather Stations






























Interactive Weather Map New forecast layout! Learn more

10-Day Weather Forecast

Advertisements
Track Severe Weather on mobile